sensor_id;sensor_type;location;lat;lon;timestamp;temperature;humidity
75363;DHT22;64122;51.988;5.892;2023-12-07T00:00:11;2.89;74.97
75363;DHT22;64122;51.988;5.892;2023-12-07T00:02:41;2.84;74.98
75363;DHT22;64122;51.988;5.892;2023-12-07T00:05:10;2.82;74.84
75363;DHT22;64122;51.988;5.892;2023-12-07T00:07:39;2.79;74.86
75363;DHT22;64122;51.988;5.892;2023-12-07T00:10:09;2.75;74.88
75363;DHT22;64122;51.988;5.892;2023-12-07T00:12:38;2.73;74.98
75363;DHT22;64122;51.988;5.892;2023-12-07T00:15:10;2.73;74.92
75363;DHT22;64122;51.988;5.892;2023-12-07T00:17:39;2.71;75.02
75363;DHT22;64122;51.988;5.892;2023-12-07T00:20:10;2.71;75.01
75363;DHT22;64122;51.988;5.892;2023-12-07T00:22:39;2.69;74.99
75363;DHT22;64122;51.988;5.892;2023-12-07T00:25:08;2.67;75.02
75363;DHT22;64122;51.988;5.892;2023-12-07T00:27:37;2.65;74.98
75363;DHT22;64122;51.988;5.892;2023-12-07T00:30:08;2.64;74.96
75363;DHT22;64122;51.988;5.892;2023-12-07T00:32:40;2.62;74.91
75363;DHT22;64122;51.988;5.892;2023-12-07T00:35:10;2.60;74.98
75363;DHT22;64122;51.988;5.892;2023-12-07T00:37:40;2.60;74.93
75363;DHT22;64122;51.988;5.892;2023-12-07T00:40:10;2.58;74.93
75363;DHT22;64122;51.988;5.892;2023-12-07T00:42:40;2.57;74.94
75363;DHT22;64122;51.988;5.892;2023-12-07T00:45:11;2.57;74.91
75363;DHT22;64122;51.988;5.892;2023-12-07T00:47:43;2.57;75.01
75363;DHT22;64122;51.988;5.892;2023-12-07T00:50:12;2.55;75.00
75363;DHT22;64122;51.988;5.892;2023-12-07T00:52:42;2.52;74.96
75363;DHT22;64122;51.988;5.892;2023-12-07T00:55:11;2.52;75.02
75363;DHT22;64122;51.988;5.892;2023-12-07T00:57:41;2.50;75.23
75363;DHT22;64122;51.988;5.892;2023-12-07T01:00:10;2.49;75.13
75363;DHT22;64122;51.988;5.892;2023-12-07T01:02:42;2.50;75.14
75363;DHT22;64122;51.988;5.892;2023-12-07T01:05:12;2.46;75.15
75363;DHT22;64122;51.988;5.892;2023-12-07T01:07:41;2.46;75.08
75363;DHT22;64122;51.988;5.892;2023-12-07T01:10:10;2.44;75.08
75363;DHT22;64122;51.988;5.892;2023-12-07T01:12:40;2.44;75.09
75363;DHT22;64122;51.988;5.892;2023-12-07T01:15:09;2.42;75.00
75363;DHT22;64122;51.988;5.892;2023-12-07T01:17:38;2.42;75.08
75363;DHT22;64122;51.988;5.892;2023-12-07T01:20:11;2.44;74.86
75363;DHT22;64122;51.988;5.892;2023-12-07T01:22:40;2.40;75.02
75363;DHT22;64122;51.988;5.892;2023-12-07T01:25:12;2.38;74.93
75363;DHT22;64122;51.988;5.892;2023-12-07T01:27:46;2.34;74.99
75363;DHT22;64122;51.988;5.892;2023-12-07T01:30:15;2.34;75.01
75363;DHT22;64122;51.988;5.892;2023-12-07T01:32:44;2.30;75.08
75363;DHT22;64122;51.988;5.892;2023-12-07T01:35:16;2.32;75.03
75363;DHT22;64122;51.988;5.892;2023-12-07T01:37:45;2.28;75.23
75363;DHT22;64122;51.988;5.892;2023-12-07T01:40:15;2.28;75.23
75363;DHT22;64122;51.988;5.892;2023-12-07T01:42:49;2.29;75.08
75363;DHT22;64122;51.988;5.892;2023-12-07T01:45:19;2.24;75.18
75363;DHT22;64122;51.988;5.892;2023-12-07T01:47:49;2.25;75.18
75363;DHT22;64122;51.988;5.892;2023-12-07T01:50:22;2.23;75.21
75363;DHT22;64122;51.988;5.892;2023-12-07T01:52:54;2.23;75.33
75363;DHT22;64122;51.988;5.892;2023-12-07T01:55:26;2.23;75.33
75363;DHT22;64122;51.988;5.892;2023-12-07T01:57:56;2.23;75.35
75363;DHT22;64122;51.988;5.892;2023-12-07T02:00:26;2.25;75.36
75363;DHT22;64122;51.988;5.892;2023-12-07T02:02:56;2.27;75.34
75363;DHT22;64122;51.988;5.892;2023-12-07T02:05:28;2.32;75.29
75363;DHT22;64122;51.988;5.892;2023-12-07T02:07:57;2.37;75.15
75363;DHT22;64122;51.988;5.892;2023-12-07T02:10:27;2.45;75.03
75363;DHT22;64122;51.988;5.892;2023-12-07T02:12:56;2.54;74.93
75363;DHT22;64122;51.988;5.892;2023-12-07T02:15:25;2.64;74.84
75363;DHT22;64122;51.988;5.892;2023-12-07T02:18:01;2.71;74.69
75363;DHT22;64122;51.988;5.892;2023-12-07T02:20:38;2.79;74.57
75363;DHT22;64122;51.988;5.892;2023-12-07T02:23:08;2.85;74.63
75363;DHT22;64122;51.988;5.892;2023-12-07T02:25:44;2.90;74.60
75363;DHT22;64122;51.988;5.892;2023-12-07T02:28:16;2.98;74.61
75363;DHT22;64122;51.988;5.892;2023-12-07T02:30:46;3.06;74.45
75363;DHT22;64122;51.988;5.892;2023-12-07T02:33:15;3.18;74.37
75363;DHT22;64122;51.988;5.892;2023-12-07T02:35:45;3.27;74.33
75363;DHT22;64122;51.988;5.892;2023-12-07T02:38:15;3.30;74.28
75363;DHT22;64122;51.988;5.892;2023-12-07T02:40:46;3.36;74.27
75363;DHT22;64122;51.988;5.892;2023-12-07T02:43:18;3.41;74.20
75363;DHT22;64122;51.988;5.892;2023-12-07T02:45:48;3.41;74.30
75363;DHT22;64122;51.988;5.892;2023-12-07T02:48:17;3.43;74.41
75363;DHT22;64122;51.988;5.892;2023-12-07T02:50:46;3.45;74.52
75363;DHT22;64122;51.988;5.892;2023-12-07T02:53:16;3.48;74.50
75363;DHT22;64122;51.988;5.892;2023-12-07T02:55:45;3.52;74.41
75363;DHT22;64122;51.988;5.892;2023-12-07T02:58:14;3.56;74.36
75363;DHT22;64122;51.988;5.892;2023-12-07T03:00:46;3.59;74.34
75363;DHT22;64122;51.988;5.892;2023-12-07T03:03:15;3.59;74.41
75363;DHT22;64122;51.988;5.892;2023-12-07T03:05:44;3.57;74.46
75363;DHT22;64122;51.988;5.892;2023-12-07T03:08:14;3.55;74.53
75363;DHT22;64122;51.988;5.892;2023-12-07T03:10:43;3.56;74.46
75363;DHT22;64122;51.988;5.892;2023-12-07T03:13:12;3.55;74.47
75363;DHT22;64122;51.988;5.892;2023-12-07T03:15:41;3.58;74.48
75363;DHT22;64122;51.988;5.892;2023-12-07T03:18:10;3.58;74.38
75363;DHT22;64122;51.988;5.892;2023-12-07T03:20:40;3.57;74.44
75363;DHT22;64122;51.988;5.892;2023-12-07T03:23:09;3.55;74.41
75363;DHT22;64122;51.988;5.892;2023-12-07T03:25:38;3.56;74.43
75363;DHT22;64122;51.988;5.892;2023-12-07T03:28:07;3.58;74.45
75363;DHT22;64122;51.988;5.892;2023-12-07T03:30:36;3.58;74.38
75363;DHT22;64122;51.988;5.892;2023-12-07T03:33:06;3.59;74.41
75363;DHT22;64122;51.988;5.892;2023-12-07T03:35:37;3.62;74.39
75363;DHT22;64122;51.988;5.892;2023-12-07T03:38:06;3.68;74.54
75363;DHT22;64122;51.988;5.892;2023-12-07T03:40:36;3.71;74.56
75363;DHT22;64122;51.988;5.892;2023-12-07T03:43:05;3.77;74.50
75363;DHT22;64122;51.988;5.892;2023-12-07T03:45:34;3.84;74.36
75363;DHT22;64122;51.988;5.892;2023-12-07T03:48:04;3.91;74.40
75363;DHT22;64122;51.988;5.892;2023-12-07T03:50:33;3.97;74.31
75363;DHT22;64122;51.988;5.892;2023-12-07T03:53:05;4.03;74.20
75363;DHT22;64122;51.988;5.892;2023-12-07T03:55:34;4.07;74.13
75363;DHT22;64122;51.988;5.892;2023-12-07T03:58:03;4.13;74.07
75363;DHT22;64122;51.988;5.892;2023-12-07T04:00:32;4.14;74.08
75363;DHT22;64122;51.988;5.892;2023-12-07T04:03:02;4.18;74.12
75363;DHT22;64122;51.988;5.892;2023-12-07T04:05:31;4.22;74.07
75363;DHT22;64122;51.988;5.892;2023-12-07T04:08:00;4.27;73.99
75363;DHT22;64122;51.988;5.892;2023-12-07T04:10:33;4.31;73.89
75363;DHT22;64122;51.988;5.892;2023-12-07T04:13:03;4.33;73.90
75363;DHT22;64122;51.988;5.892;2023-12-07T04:15:32;4.33;73.88
75363;DHT22;64122;51.988;5.892;2023-12-07T04:18:01;4.31;73.90
75363;DHT22;64122;51.988;5.892;2023-12-07T04:20:30;4.23;74.00
75363;DHT22;64122;51.988;5.892;2023-12-07T04:22:59;4.14;74.22
75363;DHT22;64122;51.988;5.892;2023-12-07T04:25:28;4.04;74.45
75363;DHT22;64122;51.988;5.892;2023-12-07T04:28:00;3.98;74.51
75363;DHT22;64122;51.988;5.892;2023-12-07T04:30:29;3.88;74.70
75363;DHT22;64122;51.988;5.892;2023-12-07T04:32:59;3.82;74.90
75363;DHT22;64122;51.988;5.892;2023-12-07T04:35:28;3.83;74.86
75363;DHT22;64122;51.988;5.892;2023-12-07T04:37:57;3.84;74.83
75363;DHT22;64122;51.988;5.892;2023-12-07T04:40:26;3.87;74.85
75363;DHT22;64122;51.988;5.892;2023-12-07T04:42:56;3.92;74.77
75363;DHT22;64122;51.988;5.892;2023-12-07T04:45:28;3.98;74.64
75363;DHT22;64122;51.988;5.892;2023-12-07T04:47:57;4.01;74.62
75363;DHT22;64122;51.988;5.892;2023-12-07T04:50:26;4.02;74.60
75363;DHT22;64122;51.988;5.892;2023-12-07T04:52:55;4.08;74.56
75363;DHT22;64122;51.988;5.892;2023-12-07T04:55:25;4.12;74.41
75363;DHT22;64122;51.988;5.892;2023-12-07T04:57:54;4.13;74.46
75363;DHT22;64122;51.988;5.892;2023-12-07T05:00:23;4.14;74.38
75363;DHT22;64122;51.988;5.892;2023-12-07T05:02:56;4.16;74.32
75363;DHT22;64122;51.988;5.892;2023-12-07T05:05:25;4.16;74.32
75363;DHT22;64122;51.988;5.892;2023-12-07T05:07:54;4.19;74.11
75363;DHT22;64122;51.988;5.892;2023-12-07T05:10:23;4.18;74.08
75363;DHT22;64122;51.988;5.892;2023-12-07T05:12:52;4.16;74.14
75363;DHT22;64122;51.988;5.892;2023-12-07T05:15:23;4.15;74.14
75363;DHT22;64122;51.988;5.892;2023-12-07T05:17:52;4.14;74.19
75363;DHT22;64122;51.988;5.892;2023-12-07T05:20:24;4.13;73.82
75363;DHT22;64122;51.988;5.892;2023-12-07T05:22:54;4.09;74.02
75363;DHT22;64122;51.988;5.892;2023-12-07T05:25:23;4.07;74.05
75363;DHT22;64122;51.988;5.892;2023-12-07T05:27:52;4.05;74.12
75363;DHT22;64122;51.988;5.892;2023-12-07T05:30:22;4.00;74.17
75363;DHT22;64122;51.988;5.892;2023-12-07T05:32:51;3.97;74.22
75363;DHT22;64122;51.988;5.892;2023-12-07T05:35:22;3.97;74.25
75363;DHT22;64122;51.988;5.892;2023-12-07T05:37:52;3.91;74.17
75363;DHT22;64122;51.988;5.892;2023-12-07T05:40:21;3.92;74.12
75363;DHT22;64122;51.988;5.892;2023-12-07T05:42:50;3.90;74.15
75363;DHT22;64122;51.988;5.892;2023-12-07T05:45:19;3.87;74.08
75363;DHT22;64122;51.988;5.892;2023-12-07T05:47:49;3.84;74.01
75363;DHT22;64122;51.988;5.892;2023-12-07T05:50:18;3.84;74.02
75363;DHT22;64122;51.988;5.892;2023-12-07T05:52:50;3.80;73.97
75363;DHT22;64122;51.988;5.892;2023-12-07T05:55:19;3.75;74.02
75363;DHT22;64122;51.988;5.892;2023-12-07T05:57:48;3.71;74.05
75363;DHT22;64122;51.988;5.892;2023-12-07T06:00:18;3.67;74.11
75363;DHT22;64122;51.988;5.892;2023-12-07T06:02:47;3.65;74.15
75363;DHT22;64122;51.988;5.892;2023-12-07T06:05:16;3.64;74.13
75363;DHT22;64122;51.988;5.892;2023-12-07T06:07:48;3.63;74.09
75363;DHT22;64122;51.988;5.892;2023-12-07T06:10:19;3.63;74.17
75363;DHT22;64122;51.988;5.892;2023-12-07T06:12:49;3.62;74.14
75363;DHT22;64122;51.988;5.892;2023-12-07T06:15:18;3.61;74.12
75363;DHT22;64122;51.988;5.892;2023-12-07T06:17:48;3.59;74.14
75363;DHT22;64122;51.988;5.892;2023-12-07T06:20:17;3.58;74.31
75363;DHT22;64122;51.988;5.892;2023-12-07T06:22:49;3.57;74.20
75363;DHT22;64122;51.988;5.892;2023-12-07T06:25:18;3.53;74.27
75363;DHT22;64122;51.988;5.892;2023-12-07T06:27:47;3.55;74.19
75363;DHT22;64122;51.988;5.892;2023-12-07T06:30:17;3.54;74.12
75363;DHT22;64122;51.988;5.892;2023-12-07T06:32:47;3.49;73.99
75363;DHT22;64122;51.988;5.892;2023-12-07T06:35:16;3.44;74.09
75363;DHT22;64122;51.988;5.892;2023-12-07T06:37:45;3.45;74.06
75363;DHT22;64122;51.988;5.892;2023-12-07T06:40:17;3.48;73.87
75363;DHT22;64122;51.988;5.892;2023-12-07T06:42:46;3.43;73.92
75363;DHT22;64122;51.988;5.892;2023-12-07T06:45:15;3.43;73.97
75363;DHT22;64122;51.988;5.892;2023-12-07T06:47:44;3.38;73.87
75363;DHT22;64122;51.988;5.892;2023-12-07T06:50:14;3.33;74.04
75363;DHT22;64122;51.988;5.892;2023-12-07T06:52:43;3.32;73.93
75363;DHT22;64122;51.988;5.892;2023-12-07T06:55:12;3.31;73.99
75363;DHT22;64122;51.988;5.892;2023-12-07T06:57:44;3.32;73.97
75363;DHT22;64122;51.988;5.892;2023-12-07T07:00:14;3.31;74.06
75363;DHT22;64122;51.988;5.892;2023-12-07T07:02:44;3.30;74.07
75363;DHT22;64122;51.988;5.892;2023-12-07T07:05:13;3.30;73.95
75363;DHT22;64122;51.988;5.892;2023-12-07T07:07:42;3.26;74.08
75363;DHT22;64122;51.988;5.892;2023-12-07T07:10:12;3.24;74.16
75363;DHT22;64122;51.988;5.892;2023-12-07T07:12:43;3.23;74.24
75363;DHT22;64122;51.988;5.892;2023-12-07T07:15:13;3.25;74.28
75363;DHT22;64122;51.988;5.892;2023-12-07T07:17:42;3.23;74.08
75363;DHT22;64122;51.988;5.892;2023-12-07T07:20:11;3.25;74.19
75363;DHT22;64122;51.988;5.892;2023-12-07T07:22:41;3.27;74.26
75363;DHT22;64122;51.988;5.892;2023-12-07T07:25:11;3.27;74.22
75363;DHT22;64122;51.988;5.892;2023-12-07T07:27:44;3.28;74.18
75363;DHT22;64122;51.988;5.892;2023-12-07T07:30:13;3.29;74.11
75363;DHT22;64122;51.988;5.892;2023-12-07T07:32:43;3.28;74.19
75363;DHT22;64122;51.988;5.892;2023-12-07T07:35:12;3.28;74.30
75363;DHT22;64122;51.988;5.892;2023-12-07T07:37:41;3.31;74.26
75363;DHT22;64122;51.988;5.892;2023-12-07T07:40:11;3.32;74.32
75363;DHT22;64122;51.988;5.892;2023-12-07T07:42:40;3.33;74.25
75363;DHT22;64122;51.988;5.892;2023-12-07T07:45:12;3.38;74.18
75363;DHT22;64122;51.988;5.892;2023-12-07T07:47:42;3.42;74.15
75363;DHT22;64122;51.988;5.892;2023-12-07T07:50:11;3.42;73.93
75363;DHT22;64122;51.988;5.892;2023-12-07T07:52:40;3.43;73.97
75363;DHT22;64122;51.988;5.892;2023-12-07T07:55:10;3.43;74.05
75363;DHT22;64122;51.988;5.892;2023-12-07T07:57:39;3.42;74.08
75363;DHT22;64122;51.988;5.892;2023-12-07T08:00:13;3.39;74.09
75363;DHT22;64122;51.988;5.892;2023-12-07T08:02:43;3.40;74.03
75363;DHT22;64122;51.988;5.892;2023-12-07T08:05:13;3.35;74.02
75363;DHT22;64122;51.988;5.892;2023-12-07T08:07:42;3.39;73.80
75363;DHT22;64122;51.988;5.892;2023-12-07T08:10:11;3.38;73.89
75363;DHT22;64122;51.988;5.892;2023-12-07T08:12:40;3.36;73.96
75363;DHT22;64122;51.988;5.892;2023-12-07T08:15:13;3.36;73.95
75363;DHT22;64122;51.988;5.892;2023-12-07T08:17:42;3.39;73.88
75363;DHT22;64122;51.988;5.892;2023-12-07T08:20:12;3.41;73.81
75363;DHT22;64122;51.988;5.892;2023-12-07T08:22:41;3.41;73.88
75363;DHT22;64122;51.988;5.892;2023-12-07T08:25:11;3.36;73.91
75363;DHT22;64122;51.988;5.892;2023-12-07T08:27:40;3.36;73.84
75363;DHT22;64122;51.988;5.892;2023-12-07T08:30:13;3.31;73.78
75363;DHT22;64122;51.988;5.892;2023-12-07T08:32:42;3.25;73.95
75363;DHT22;64122;51.988;5.892;2023-12-07T08:35:12;3.23;74.15
75363;DHT22;64122;51.988;5.892;2023-12-07T08:37:41;3.28;74.12
75363;DHT22;64122;51.988;5.892;2023-12-07T08:40:10;3.30;73.77
75363;DHT22;64122;51.988;5.892;2023-12-07T08:42:43;3.26;73.80
75363;DHT22;64122;51.988;5.892;2023-12-07T08:45:15;3.18;73.79
75363;DHT22;64122;51.988;5.892;2023-12-07T08:47:44;3.13;74.02
75363;DHT22;64122;51.988;5.892;2023-12-07T08:50:13;3.13;73.96
75363;DHT22;64122;51.988;5.892;2023-12-07T08:52:42;3.18;73.88
75363;DHT22;64122;51.988;5.892;2023-12-07T08:55:11;3.25;73.88
75363;DHT22;64122;51.988;5.892;2023-12-07T08:57:41;3.29;73.71
75363;DHT22;64122;51.988;5.892;2023-12-07T09:00:11;3.30;73.70
75363;DHT22;64122;51.988;5.892;2023-12-07T09:02:44;3.29;73.58
75363;DHT22;64122;51.988;5.892;2023-12-07T09:05:10;3.27;73.85
75363;DHT22;64122;51.988;5.892;2023-12-07T09:07:39;3.27;73.90
75363;DHT22;64122;51.988;5.892;2023-12-07T09:10:09;3.26;73.91
75363;DHT22;64122;51.988;5.892;2023-12-07T09:12:38;3.29;73.82
75363;DHT22;64122;51.988;5.892;2023-12-07T09:15:08;3.28;73.76
75363;DHT22;64122;51.988;5.892;2023-12-07T09:17:39;3.28;73.84
75363;DHT22;64122;51.988;5.892;2023-12-07T09:20:11;3.26;73.83
75363;DHT22;64122;51.988;5.892;2023-12-07T09:22:42;3.25;73.80
75363;DHT22;64122;51.988;5.892;2023-12-07T09:25:12;3.27;73.83
75363;DHT22;64122;51.988;5.892;2023-12-07T09:27:41;3.31;73.77
75363;DHT22;64122;51.988;5.892;2023-12-07T09:30:11;3.38;73.68
75363;DHT22;64122;51.988;5.892;2023-12-07T09:32:40;3.39;73.69
75363;DHT22;64122;51.988;5.892;2023-12-07T09:35:13;3.39;73.65
75363;DHT22;64122;51.988;5.892;2023-12-07T09:37:45;3.42;73.75
75363;DHT22;64122;51.988;5.892;2023-12-07T09:40:15;3.46;73.57
75363;DHT22;64122;51.988;5.892;2023-12-07T09:42:46;3.49;73.46
75363;DHT22;64122;51.988;5.892;2023-12-07T09:45:16;3.49;73.49
75363;DHT22;64122;51.988;5.892;2023-12-07T09:47:48;3.54;73.48
75363;DHT22;64122;51.988;5.892;2023-12-07T09:50:21;3.53;73.47
75363;DHT22;64122;51.988;5.892;2023-12-07T09:52:52;3.56;73.50
75363;DHT22;64122;51.988;5.892;2023-12-07T09:55:23;3.55;73.59
75363;DHT22;64122;51.988;5.892;2023-12-07T09:57:52;3.62;73.51
75363;DHT22;64122;51.988;5.892;2023-12-07T10:00:24;3.68;73.16
75363;DHT22;64122;51.988;5.892;2023-12-07T10:02:53;3.69;73.10
75363;DHT22;64122;51.988;5.892;2023-12-07T10:05:25;3.69;73.22
75363;DHT22;64122;51.988;5.892;2023-12-07T10:07:54;3.64;73.24
75363;DHT22;64122;51.988;5.892;2023-12-07T10:10:24;3.64;73.44
75363;DHT22;64122;51.988;5.892;2023-12-07T10:12:54;3.65;73.32
75363;DHT22;64122;51.988;5.892;2023-12-07T10:15:24;3.68;73.43
75363;DHT22;64122;51.988;5.892;2023-12-07T10:17:56;3.74;73.22
75363;DHT22;64122;51.988;5.892;2023-12-07T10:20:29;3.77;73.14
75363;DHT22;64122;51.988;5.892;2023-12-07T10:23:02;3.83;73.04
75363;DHT22;64122;51.988;5.892;2023-12-07T10:25:31;3.85;73.08
75363;DHT22;64122;51.988;5.892;2023-12-07T10:28:01;3.91;72.91
75363;DHT22;64122;51.988;5.892;2023-12-07T10:30:33;3.95;72.90
75363;DHT22;64122;51.988;5.892;2023-12-07T10:33:03;4.03;72.70
75363;DHT22;64122;51.988;5.892;2023-12-07T10:35:38;4.07;72.57
75363;DHT22;64122;51.988;5.892;2023-12-07T10:38:07;4.08;72.61
75363;DHT22;64122;51.988;5.892;2023-12-07T10:40:36;4.09;72.66
75363;DHT22;64122;51.988;5.892;2023-12-07T10:43:07;4.09;72.60
75363;DHT22;64122;51.988;5.892;2023-12-07T10:45:37;4.10;72.80
75363;DHT22;64122;51.988;5.892;2023-12-07T10:48:10;4.14;72.79
75363;DHT22;64122;51.988;5.892;2023-12-07T10:50:46;4.17;72.77
75363;DHT22;64122;51.988;5.892;2023-12-07T10:53:20;4.22;72.77
75363;DHT22;64122;51.988;5.892;2023-12-07T10:55:55;4.21;72.80
75363;DHT22;64122;51.988;5.892;2023-12-07T10:58:24;4.18;73.05
75363;DHT22;64122;51.988;5.892;2023-12-07T11:00:54;4.21;73.23
75363;DHT22;64122;51.988;5.892;2023-12-07T11:03:24;4.30;72.99
75363;DHT22;64122;51.988;5.892;2023-12-07T11:05:56;4.30;73.06
75363;DHT22;64122;51.988;5.892;2023-12-07T11:08:32;4.32;73.16
75363;DHT22;64122;51.988;5.892;2023-12-07T11:11:07;4.33;73.20
75363;DHT22;64122;51.988;5.892;2023-12-07T11:13:40;4.30;73.32
75363;DHT22;64122;51.988;5.892;2023-12-07T11:16:15;4.31;73.53
75363;DHT22;64122;51.988;5.892;2023-12-07T11:18:44;4.33;73.54
75363;DHT22;64122;51.988;5.892;2023-12-07T11:21:17;4.42;73.43
75363;DHT22;64122;51.988;5.892;2023-12-07T11:23:47;4.48;73.32
75363;DHT22;64122;51.988;5.892;2023-12-07T11:26:19;4.51;73.43
75363;DHT22;64122;51.988;5.892;2023-12-07T11:28:48;4.56;73.44
75363;DHT22;64122;51.988;5.892;2023-12-07T11:31:17;4.58;73.45
75363;DHT22;64122;51.988;5.892;2023-12-07T11:33:48;4.58;73.48
75363;DHT22;64122;51.988;5.892;2023-12-07T11:36:20;4.61;73.44
75363;DHT22;64122;51.988;5.892;2023-12-07T11:39:16;4.72;73.15
75363;DHT22;64122;51.988;5.892;2023-12-07T11:41:51;4.82;73.22
75363;DHT22;64122;51.988;5.892;2023-12-07T11:44:24;4.90;73.03
75363;DHT22;64122;51.988;5.892;2023-12-07T11:47:01;4.96;72.96
75363;DHT22;64122;51.988;5.892;2023-12-07T11:49:31;5.07;72.84
75363;DHT22;64122;51.988;5.892;2023-12-07T11:52:12;5.16;72.45
75363;DHT22;64122;51.988;5.892;2023-12-07T11:54:43;5.19;72.54
75363;DHT22;64122;51.988;5.892;2023-12-07T11:57:13;5.21;72.39
75363;DHT22;64122;51.988;5.892;2023-12-07T11:59:44;5.27;72.44
75363;DHT22;64122;51.988;5.892;2023-12-07T12:02:14;5.32;72.39
75363;DHT22;64122;51.988;5.892;2023-12-07T12:04:43;5.35;72.28
75363;DHT22;64122;51.988;5.892;2023-12-07T12:07:15;5.37;72.08
75363;DHT22;64122;51.988;5.892;2023-12-07T12:09:44;5.41;72.19
75363;DHT22;64122;51.988;5.892;2023-12-07T12:12:13;5.49;72.08
75363;DHT22;64122;51.988;5.892;2023-12-07T12:14:43;5.51;71.90
75363;DHT22;64122;51.988;5.892;2023-12-07T12:17:15;5.51;71.85
75363;DHT22;64122;51.988;5.892;2023-12-07T12:19:44;5.53;71.91
75363;DHT22;64122;51.988;5.892;2023-12-07T12:22:19;5.52;71.80
75363;DHT22;64122;51.988;5.892;2023-12-07T12:24:48;5.47;71.90
75363;DHT22;64122;51.988;5.892;2023-12-07T12:27:17;5.43;71.93
75363;DHT22;64122;51.988;5.892;2023-12-07T12:29:47;5.35;71.79
75363;DHT22;64122;51.988;5.892;2023-12-07T12:32:16;5.32;72.15
75363;DHT22;64122;51.988;5.892;2023-12-07T12:34:51;5.33;71.94
75363;DHT22;64122;51.988;5.892;2023-12-07T12:37:22;5.33;71.84
75363;DHT22;64122;51.988;5.892;2023-12-07T12:39:53;5.34;72.00
75363;DHT22;64122;51.988;5.892;2023-12-07T12:42:22;5.32;71.93
75363;DHT22;64122;51.988;5.892;2023-12-07T12:44:51;5.35;71.90
75363;DHT22;64122;51.988;5.892;2023-12-07T12:47:21;5.33;71.62
75363;DHT22;64122;51.988;5.892;2023-12-07T12:49:50;5.24;71.78
75363;DHT22;64122;51.988;5.892;2023-12-07T12:52:23;5.23;71.95
75363;DHT22;64122;51.988;5.892;2023-12-07T12:54:55;5.26;71.98
75363;DHT22;64122;51.988;5.892;2023-12-07T12:57:25;5.26;72.06
75363;DHT22;64122;51.988;5.892;2023-12-07T12:59:54;5.27;71.95
75363;DHT22;64122;51.988;5.892;2023-12-07T13:02:23;5.30;72.03
75363;DHT22;64122;51.988;5.892;2023-12-07T13:04:52;5.31;71.99
75363;DHT22;64122;51.988;5.892;2023-12-07T13:07:24;5.35;71.85
75363;DHT22;64122;51.988;5.892;2023-12-07T13:09:53;5.38;71.75
75363;DHT22;64122;51.988;5.892;2023-12-07T13:12:23;5.32;71.77
75363;DHT22;64122;51.988;5.892;2023-12-07T13:14:54;5.19;71.89
75363;DHT22;64122;51.988;5.892;2023-12-07T13:17:23;5.03;72.24
75363;DHT22;64122;51.988;5.892;2023-12-07T13:19:52;4.98;72.23
75363;DHT22;64122;51.988;5.892;2023-12-07T13:22:25;4.94;72.53
75363;DHT22;64122;51.988;5.892;2023-12-07T13:24:54;4.94;72.51
75363;DHT22;64122;51.988;5.892;2023-12-07T13:27:23;5.01;72.29
75363;DHT22;64122;51.988;5.892;2023-12-07T13:29:52;5.05;72.41
75363;DHT22;64122;51.988;5.892;2023-12-07T13:32:22;5.08;72.17
75363;DHT22;64122;51.988;5.892;2023-12-07T13:34:51;5.00;72.19
75363;DHT22;64122;51.988;5.892;2023-12-07T13:37:20;4.93;72.30
75363;DHT22;64122;51.988;5.892;2023-12-07T13:39:52;4.88;72.41
75363;DHT22;64122;51.988;5.892;2023-12-07T13:42:24;4.90;72.66
75363;DHT22;64122;51.988;5.892;2023-12-07T13:44:55;4.94;72.59
75363;DHT22;64122;51.988;5.892;2023-12-07T13:47:26;5.00;72.44
75363;DHT22;64122;51.988;5.892;2023-12-07T13:50:00;5.00;72.35
75363;DHT22;64122;51.988;5.892;2023-12-07T13:52:32;4.92;72.37
75363;DHT22;64122;51.988;5.892;2023-12-07T13:55:05;4.83;72.61
75363;DHT22;64122;51.988;5.892;2023-12-07T13:57:35;4.84;72.71
75363;DHT22;64122;51.988;5.892;2023-12-07T14:00:07;4.82;72.71
75363;DHT22;64122;51.988;5.892;2023-12-07T14:02:44;4.67;73.02
75363;DHT22;64122;51.988;5.892;2023-12-07T14:05:13;4.77;73.02
75363;DHT22;64122;51.988;5.892;2023-12-07T14:07:44;4.80;72.76
75363;DHT22;64122;51.988;5.892;2023-12-07T14:10:16;4.80;72.96
75363;DHT22;64122;51.988;5.892;2023-12-07T14:12:45;4.83;72.91
75363;DHT22;64122;51.988;5.892;2023-12-07T14:15:15;4.86;72.88
75363;DHT22;64122;51.988;5.892;2023-12-07T14:17:44;4.81;72.88
75363;DHT22;64122;51.988;5.892;2023-12-07T14:20:13;4.78;73.09
75363;DHT22;64122;51.988;5.892;2023-12-07T14:22:43;4.72;73.19
75363;DHT22;64122;51.988;5.892;2023-12-07T14:25:12;4.69;73.40
75363;DHT22;64122;51.988;5.892;2023-12-07T14:27:44;4.71;73.47
75363;DHT22;64122;51.988;5.892;2023-12-07T14:30:14;4.72;73.56
75363;DHT22;64122;51.988;5.892;2023-12-07T14:32:43;4.74;73.64
75363;DHT22;64122;51.988;5.892;2023-12-07T14:35:27;4.73;73.48
75363;DHT22;64122;51.988;5.892;2023-12-07T14:37:59;4.69;73.82
75363;DHT22;64122;51.988;5.892;2023-12-07T14:40:28;4.64;73.92
75363;DHT22;64122;51.988;5.892;2023-12-07T14:43:00;4.58;74.17
75363;DHT22;64122;51.988;5.892;2023-12-07T14:45:29;4.48;74.33
75363;DHT22;64122;51.988;5.892;2023-12-07T14:47:59;4.41;74.55
75363;DHT22;64122;51.988;5.892;2023-12-07T14:50:28;4.37;74.73
75363;DHT22;64122;51.988;5.892;2023-12-07T14:52:57;4.32;74.91
75363;DHT22;64122;51.988;5.892;2023-12-07T14:55:26;4.26;75.04
75363;DHT22;64122;51.988;5.892;2023-12-07T14:57:55;4.23;75.17
75363;DHT22;64122;51.988;5.892;2023-12-07T15:00:27;4.21;75.24
75363;DHT22;64122;51.988;5.892;2023-12-07T15:03:02;4.21;75.27
75363;DHT22;64122;51.988;5.892;2023-12-07T15:05:34;4.20;75.41
75363;DHT22;64122;51.988;5.892;2023-12-07T15:08:04;4.19;75.34
75363;DHT22;64122;51.988;5.892;2023-12-07T15:10:33;4.14;75.50
75363;DHT22;64122;51.988;5.892;2023-12-07T15:13:03;4.12;75.60
75363;DHT22;64122;51.988;5.892;2023-12-07T15:15:35;4.13;75.57
75363;DHT22;64122;51.988;5.892;2023-12-07T15:18:04;4.08;75.74
75363;DHT22;64122;51.988;5.892;2023-12-07T15:20:34;4.07;75.87
75363;DHT22;64122;51.988;5.892;2023-12-07T15:23:03;4.06;75.89
75363;DHT22;64122;51.988;5.892;2023-12-07T15:25:32;4.04;75.98
75363;DHT22;64122;51.988;5.892;2023-12-07T15:28:02;4.03;76.06
75363;DHT22;64122;51.988;5.892;2023-12-07T15:30:31;4.03;76.04
75363;DHT22;64122;51.988;5.892;2023-12-07T15:33:03;4.02;76.06
75363;DHT22;64122;51.988;5.892;2023-12-07T15:35:33;4.00;76.18
75363;DHT22;64122;51.988;5.892;2023-12-07T15:38:02;3.98;76.25
75363;DHT22;64122;51.988;5.892;2023-12-07T15:40:31;3.91;76.36
75363;DHT22;64122;51.988;5.892;2023-12-07T15:43:00;3.88;76.47
75363;DHT22;64122;51.988;5.892;2023-12-07T15:45:30;3.86;76.54
75363;DHT22;64122;51.988;5.892;2023-12-07T15:48:03;3.84;76.62
75363;DHT22;64122;51.988;5.892;2023-12-07T15:50:32;3.79;76.70
75363;DHT22;64122;51.988;5.892;2023-12-07T15:53:01;3.78;76.76
75363;DHT22;64122;51.988;5.892;2023-12-07T15:55:30;3.76;76.91
75363;DHT22;64122;51.988;5.892;2023-12-07T15:57:59;3.75;76.90
75363;DHT22;64122;51.988;5.892;2023-12-07T16:00:28;3.74;76.92
75363;DHT22;64122;51.988;5.892;2023-12-07T16:02:58;3.77;76.95